Weather at Hayward Executive Airport

Public forecast

Using degrees Fahrenheit for public forecast. Weather courtesy of forecast.io.

Current aviation weather report (METAR) for Hayward Executive Airport

2024/05/27 23:54 (retrieved 37 minutes ago)

KHWD 272354Z 28011KT 10SM CLR 17/10 A3002 RMK AO2 SLP176 T01720100 10194 20161 56010

Closest aviation forecast (TAF) to Hayward Executive Airport

Closest forecast is Travis Air Force Base, 37.4 nm (69.2 km) NNE.

2024/05/27 19:38 (retrieved 5 hours ago)

TAF KSUU 271900Z 2719/2901 23012G18KT 9999 SKC QNH2991INS BECMG 2719/2720 23015G25KT 9999 SKC QNH2990INS BECMG 2814/2815 23010G15KT 9999 SKC QNH3000INS TX27/2723Z TN10/2813Z